createdAt,value
2018-12-26T00:00:13.101Z,1026.76
2018-12-26T00:00:53.810Z,1026.75
2018-12-26T00:01:34.734Z,1026.75
2018-12-26T00:02:15.327Z,1026.79
2018-12-26T00:02:56.049Z,1026.74
2018-12-26T00:03:36.877Z,1026.77
2018-12-26T00:04:17.696Z,1026.74
2018-12-26T00:04:58.479Z,1026.75
2018-12-26T00:05:39.297Z,1026.76
2018-12-26T00:06:20.010Z,1026.74
2018-12-26T00:07:00.823Z,1026.78
2018-12-26T00:07:41.556Z,1026.75
2018-12-26T00:08:22.273Z,1026.76
2018-12-26T00:09:03.019Z,1026.74
2018-12-26T00:09:43.778Z,1026.73
2018-12-26T00:10:24.550Z,1026.7
2018-12-26T00:11:05.290Z,1026.71
2018-12-26T00:11:46.083Z,1026.69
2018-12-26T00:12:26.894Z,1026.72
2018-12-26T00:13:07.776Z,1026.7
2018-12-26T00:13:48.525Z,1026.68
2018-12-26T00:14:29.268Z,1026.66
2018-12-26T00:15:10.008Z,1026.68
2018-12-26T00:15:50.789Z,1026.67
2018-12-26T00:16:31.614Z,1026.66
2018-12-26T00:17:12.414Z,1026.64
2018-12-26T00:17:53.191Z,1026.66
2018-12-26T00:18:33.963Z,1026.64
2018-12-26T00:19:14.681Z,1026.64
2018-12-26T00:19:55.589Z,1026.63
2018-12-26T00:20:36.246Z,1026.62
2018-12-26T00:21:17.022Z,1026.59
2018-12-26T00:21:57.832Z,1026.58
2018-12-26T00:22:38.619Z,1026.52
2018-12-26T00:23:19.416Z,1026.54
2018-12-26T00:24:00.302Z,1026.55
2018-12-26T00:24:40.895Z,1026.54
2018-12-26T00:25:21.671Z,1026.58
2018-12-26T00:26:02.466Z,1026.53
2018-12-26T00:26:43.297Z,1026.57
2018-12-26T00:27:24.036Z,1026.59
2018-12-26T00:28:04.775Z,1026.55
2018-12-26T00:28:45.603Z,1026.56
2018-12-26T00:29:26.327Z,1026.57
2018-12-26T00:30:07.026Z,1026.51
2018-12-26T00:30:47.762Z,1026.54
2018-12-26T00:31:28.579Z,1026.57
2018-12-26T00:32:09.464Z,1026.54
2018-12-26T00:32:50.337Z,1026.53
2018-12-26T00:33:31.126Z,1026.54
2018-12-26T00:34:11.925Z,1026.55
2018-12-26T00:34:52.642Z,1026.52
2018-12-26T00:35:33.371Z,1026.53
2018-12-26T00:36:14.163Z,1026.54
2018-12-26T00:36:54.957Z,1026.57
2018-12-26T00:37:35.670Z,1026.57
2018-12-26T00:38:16.509Z,1026.57
2018-12-26T00:38:57.257Z,1026.58
2018-12-26T00:39:38.042Z,1026.6
2018-12-26T00:40:18.774Z,1026.6
2018-12-26T00:40:59.531Z,1026.59
2018-12-26T00:41:40.353Z,1026.57
2018-12-26T00:42:21.168Z,1026.56
2018-12-26T00:43:01.873Z,1026.6
2018-12-26T00:43:42.572Z,1026.6
2018-12-26T00:44:23.342Z,1026.58
2018-12-26T00:45:04.249Z,1026.57
2018-12-26T00:45:45.123Z,1026.54
2018-12-26T00:46:25.847Z,1026.57
2018-12-26T00:47:06.760Z,1026.58
2018-12-26T00:47:47.748Z,1026.56
2018-12-26T00:48:28.863Z,1026.59
2018-12-26T00:49:09.724Z,1026.55
2018-12-26T00:49:50.490Z,1026.56
2018-12-26T00:50:31.553Z,1026.57
2018-12-26T00:51:12.485Z,1026.54
2018-12-26T00:51:53.322Z,1026.55
2018-12-26T00:52:34.176Z,1026.55
2018-12-26T00:53:15.013Z,1026.59
2018-12-26T00:53:55.759Z,1026.55
2018-12-26T00:54:36.628Z,1026.54
2018-12-26T00:55:17.404Z,1026.54
2018-12-26T00:55:58.090Z,1026.53
2018-12-26T00:56:38.856Z,1026.56
2018-12-26T00:57:19.577Z,1026.53
2018-12-26T00:58:00.469Z,1026.55
2018-12-26T00:58:41.253Z,1026.56
2018-12-26T00:59:22.061Z,1026.56
2018-12-26T01:00:02.810Z,1026.57
2018-12-26T01:00:43.506Z,1026.57
2018-12-26T01:01:24.266Z,1026.53
2018-12-26T01:02:05.045Z,1026.55
2018-12-26T01:02:45.868Z,1026.55
2018-12-26T01:03:26.581Z,1026.53
2018-12-26T01:04:07.622Z,1026.51
2018-12-26T01:04:48.458Z,1026.56
2018-12-26T01:05:29.345Z,1026.52
2018-12-26T01:06:10.077Z,1026.55
2018-12-26T01:06:50.774Z,1026.52
2018-12-26T01:07:31.547Z,1026.5
2018-12-26T01:08:12.329Z,1026.54
2018-12-26T01:08:53.167Z,1026.58
2018-12-26T01:09:34.043Z,1026.59
2018-12-26T01:10:14.878Z,1026.58
2018-12-26T01:10:55.618Z,1026.6
2018-12-26T01:11:36.360Z,1026.62
2018-12-26T01:12:17.195Z,1026.56
2018-12-26T01:12:58.068Z,1026.57
2018-12-26T01:13:38.697Z,1026.57
2018-12-26T01:14:19.407Z,1026.57
2018-12-26T01:15:00.167Z,1026.57
2018-12-26T01:15:41.003Z,1026.53
2018-12-26T01:16:21.742Z,1026.52
2018-12-26T01:17:02.478Z,1026.55
2018-12-26T01:17:43.343Z,1026.55
2018-12-26T01:18:24.177Z,1026.55
2018-12-26T01:19:04.947Z,1026.55
2018-12-26T01:19:45.656Z,1026.56
2018-12-26T01:20:26.439Z,1026.61
2018-12-26T01:21:07.271Z,1026.58
2018-12-26T01:21:48.008Z,1026.57
2018-12-26T01:22:28.732Z,1026.6
2018-12-26T01:23:09.481Z,1026.62
2018-12-26T01:23:50.269Z,1026.61
2018-12-26T01:24:31.025Z,1026.58
2018-12-26T01:25:11.832Z,1026.57
2018-12-26T01:25:52.565Z,1026.58
2018-12-26T01:26:33.256Z,1026.61
2018-12-26T01:27:13.951Z,1026.54
2018-12-26T01:27:54.767Z,1026.54
2018-12-26T01:28:35.606Z,1026.53
2018-12-26T01:29:16.337Z,1026.54
2018-12-26T01:29:57.049Z,1026.52
2018-12-26T01:30:37.849Z,1026.55
2018-12-26T01:31:18.638Z,1026.54
2018-12-26T01:31:59.456Z,1026.57
2018-12-26T01:32:40.181Z,1026.55
2018-12-26T01:33:20.949Z,1026.59
2018-12-26T01:34:01.672Z,1026.58
2018-12-26T01:34:42.414Z,1026.6
2018-12-26T01:35:23.181Z,1026.62
2018-12-26T01:36:04.002Z,1026.59
2018-12-26T01:36:44.743Z,1026.59
2018-12-26T01:37:25.464Z,1026.6
2018-12-26T01:38:06.295Z,1026.61
2018-12-26T01:38:47.058Z,1026.6
2018-12-26T01:39:27.772Z,1026.6
2018-12-26T01:40:08.529Z,1026.59
2018-12-26T01:40:49.268Z,1026.58
2018-12-26T01:41:30.114Z,1026.62
2018-12-26T01:42:11.000Z,1026.63
2018-12-26T01:42:51.797Z,1026.65
2018-12-26T01:43:32.560Z,1026.62
2018-12-26T01:44:13.318Z,1026.64
2018-12-26T01:44:54.213Z,1026.65
2018-12-26T01:45:34.884Z,1026.67
2018-12-26T01:46:15.620Z,1026.68
2018-12-26T01:46:58.073Z,1026.65
2018-12-26T01:47:38.830Z,1026.65
2018-12-26T01:48:19.598Z,1026.66
2018-12-26T01:49:00.441Z,1026.63
2018-12-26T01:49:41.194Z,1026.63
2018-12-26T01:50:21.922Z,1026.66
2018-12-26T01:51:02.745Z,1026.66
2018-12-26T01:51:43.521Z,1026.63
2018-12-26T01:52:24.230Z,1026.63
2018-12-26T01:53:05.011Z,1026.64
2018-12-26T01:53:45.745Z,1026.63
2018-12-26T01:54:26.573Z,1026.6
2018-12-26T01:55:07.379Z,1026.62
2018-12-26T01:55:48.160Z,1026.6
2018-12-26T01:56:28.908Z,1026.62
2018-12-26T01:57:09.680Z,1026.65
2018-12-26T01:57:50.506Z,1026.65
2018-12-26T01:58:31.259Z,1026.64
2018-12-26T01:59:11.989Z,1026.64
2018-12-26T01:59:52.749Z,1026.65
2018-12-26T02:00:33.544Z,1026.67
2018-12-26T02:01:14.342Z,1026.63
2018-12-26T02:01:55.186Z,1026.66
2018-12-26T02:02:35.992Z,1026.66
2018-12-26T02:03:16.721Z,1026.61
2018-12-26T02:03:57.540Z,1026.64
2018-12-26T02:04:38.311Z,1026.64
2018-12-26T02:05:19.080Z,1026.59
2018-12-26T02:05:59.834Z,1026.58
2018-12-26T02:06:40.566Z,1026.62
2018-12-26T02:07:21.330Z,1026.63
2018-12-26T02:08:02.138Z,1026.61
2018-12-26T02:08:42.991Z,1026.6
2018-12-26T02:09:23.742Z,1026.63
2018-12-26T02:10:04.455Z,1026.6
2018-12-26T02:10:45.151Z,1026.6
2018-12-26T02:11:25.938Z,1026.63
2018-12-26T02:12:06.754Z,1026.61
2018-12-26T02:12:47.551Z,1026.59
2018-12-26T02:13:28.297Z,1026.69
2018-12-26T02:14:09.107Z,1026.66
2018-12-26T02:14:49.939Z,1026.66
2018-12-26T02:15:30.752Z,1026.65
2018-12-26T02:16:11.478Z,1026.67
2018-12-26T02:16:52.181Z,1026.7
2018-12-26T02:17:32.980Z,1026.69
2018-12-26T02:18:13.901Z,1026.68
2018-12-26T02:18:54.760Z,1026.65
2018-12-26T02:19:35.556Z,1026.67
2018-12-26T02:20:16.338Z,1026.66
2018-12-26T02:20:57.031Z,1026.62
2018-12-26T02:21:37.825Z,1026.62
2018-12-26T02:22:18.615Z,1026.64
2018-12-26T02:22:59.376Z,1026.64
2018-12-26T02:23:40.092Z,1026.64
2018-12-26T02:24:20.806Z,1026.64
2018-12-26T02:25:01.632Z,1026.67
2018-12-26T02:25:42.379Z,1026.66
2018-12-26T02:26:23.091Z,1026.66
2018-12-26T02:27:03.914Z,1026.66
2018-12-26T02:27:44.701Z,1026.67
2018-12-26T02:28:25.487Z,1026.67
2018-12-26T02:29:06.220Z,1026.62
2018-12-26T02:29:46.979Z,1026.64
2018-12-26T02:30:27.859Z,1026.67
2018-12-26T02:31:08.590Z,1026.62
2018-12-26T02:31:49.339Z,1026.63
2018-12-26T02:32:30.411Z,1026.62
2018-12-26T02:33:10.808Z,1026.59
2018-12-26T02:33:51.603Z,1026.59
2018-12-26T02:34:32.397Z,1026.57
2018-12-26T02:35:19.871Z,1026.58
2018-12-26T02:36:00.588Z,1026.6
2018-12-26T02:36:41.376Z,1026.59
2018-12-26T02:37:22.092Z,1026.58
2018-12-26T02:38:02.887Z,1026.59
2018-12-26T02:38:43.720Z,1026.56
2018-12-26T02:39:24.488Z,1026.56
2018-12-26T02:40:05.273Z,1026.54
2018-12-26T02:40:46.069Z,1026.56
2018-12-26T02:41:26.861Z,1026.54
2018-12-26T02:42:07.600Z,1026.55
2018-12-26T02:42:48.310Z,1026.56
2018-12-26T02:43:29.157Z,1026.57
2018-12-26T02:44:09.960Z,1026.54
2018-12-26T02:44:50.709Z,1026.55
2018-12-26T02:45:31.430Z,1026.51
2018-12-26T02:46:12.188Z,1026.55
2018-12-26T02:46:53.002Z,1026.56
2018-12-26T02:47:33.811Z,1026.53
2018-12-26T02:48:14.498Z,1026.56
2018-12-26T02:48:55.352Z,1026.54
2018-12-26T02:49:36.133Z,1026.5
2018-12-26T02:50:16.939Z,1026.51
2018-12-26T02:50:57.671Z,1026.52
2018-12-26T02:51:38.388Z,1026.51
2018-12-26T02:52:19.131Z,1026.53
2018-12-26T02:52:59.893Z,1026.51
2018-12-26T02:53:40.638Z,1026.51
2018-12-26T02:54:21.507Z,1026.53
2018-12-26T02:55:02.287Z,1026.52
2018-12-26T02:55:43.005Z,1026.52
2018-12-26T02:56:23.845Z,1026.52
2018-12-26T02:57:04.582Z,1026.47
2018-12-26T02:57:45.277Z,1026.48
2018-12-26T02:58:26.050Z,1026.46
2018-12-26T02:59:07.006Z,1026.42
2018-12-26T02:59:47.910Z,1026.43
2018-12-26T03:00:28.809Z,1026.4
2018-12-26T03:01:09.686Z,1026.43
2018-12-26T03:01:50.504Z,1026.43
2018-12-26T03:02:31.283Z,1026.48
2018-12-26T03:03:12.112Z,1026.44
2018-12-26T03:03:52.891Z,1026.42
2018-12-26T03:04:33.646Z,1026.46
2018-12-26T03:05:14.423Z,1026.43
2018-12-26T03:05:55.183Z,1026.45
2018-12-26T03:06:35.872Z,1026.45
2018-12-26T03:07:16.587Z,1026.45
2018-12-26T03:07:57.347Z,1026.49
2018-12-26T03:08:38.142Z,1026.5
2018-12-26T03:09:18.994Z,1026.48
2018-12-26T03:09:59.770Z,1026.47
2018-12-26T03:10:40.520Z,1026.45
2018-12-26T03:11:21.279Z,1026.46
2018-12-26T03:12:02.026Z,1026.43
2018-12-26T03:12:42.940Z,1026.43
2018-12-26T03:13:23.684Z,1026.41
2018-12-26T03:14:04.397Z,1026.44
2018-12-26T03:14:45.208Z,1026.43
2018-12-26T03:15:25.983Z,1026.43
2018-12-26T03:16:06.782Z,1026.44
2018-12-26T03:16:47.526Z,1026.46
2018-12-26T03:17:28.247Z,1026.48
2018-12-26T03:18:09.028Z,1026.47
2018-12-26T03:18:49.807Z,1026.48
2018-12-26T03:19:30.706Z,1026.44
2018-12-26T03:20:11.479Z,1026.43
2018-12-26T03:20:52.300Z,1026.41
2018-12-26T03:21:33.060Z,1026.44
2018-12-26T03:25:44.727Z,1026.36
2018-12-26T03:26:25.608Z,1026.35
2018-12-26T03:27:06.426Z,1026.35
2018-12-26T03:27:47.342Z,1026.37
2018-12-26T03:28:28.138Z,1026.37
2018-12-26T03:29:08.906Z,1026.39
2018-12-26T03:29:49.669Z,1026.39
2018-12-26T03:30:30.491Z,1026.37
2018-12-26T03:31:11.300Z,1026.38
2018-12-26T03:31:52.002Z,1026.36
2018-12-26T03:32:32.852Z,1026.32
2018-12-26T03:33:13.702Z,1026.33
2018-12-26T03:33:54.414Z,1026.32
2018-12-26T03:34:35.146Z,1026.32
2018-12-26T03:35:15.873Z,1026.3
2018-12-26T03:35:56.617Z,1026.3
2018-12-26T03:36:37.375Z,1026.32
2018-12-26T03:37:18.189Z,1026.29
2018-12-26T03:37:59.038Z,1026.33
2018-12-26T03:38:40.959Z,1026.35
2018-12-26T03:39:21.505Z,1026.33
2018-12-26T03:40:02.354Z,1026.33
2018-12-26T03:40:43.084Z,1026.36
2018-12-26T03:41:23.801Z,1026.32
2018-12-26T03:42:04.527Z,1026.34
2018-12-26T03:42:45.226Z,1026.36
2018-12-26T03:43:26.079Z,1026.35
2018-12-26T03:44:06.913Z,1026.35
2018-12-26T03:44:47.718Z,1026.32
2018-12-26T03:45:28.421Z,1026.32
2018-12-26T03:46:09.161Z,1026.34
2018-12-26T03:46:49.975Z,1026.33
2018-12-26T03:47:30.694Z,1026.32
2018-12-26T03:48:11.511Z,1026.3
2018-12-26T03:48:52.382Z,1026.34
2018-12-26T03:49:33.168Z,1026.35
2018-12-26T03:50:13.935Z,1026.37
2018-12-26T03:50:54.727Z,1026.31
2018-12-26T03:51:35.477Z,1026.36
2018-12-26T03:52:16.235Z,1026.35
2018-12-26T03:52:56.944Z,1026.35
2018-12-26T03:53:37.757Z,1026.37
2018-12-26T03:54:18.822Z,1026.36
2018-12-26T03:54:59.547Z,1026.36
2018-12-26T03:55:40.410Z,1026.36
2018-12-26T03:56:21.132Z,1026.34
2018-12-26T03:57:06.132Z,1026.33
2018-12-26T03:57:43.085Z,1026.34
2018-12-26T03:58:23.847Z,1026.33
2018-12-26T03:59:04.579Z,1026.34
2018-12-26T03:59:45.378Z,1026.34
2018-12-26T04:00:26.192Z,1026.28
2018-12-26T04:01:06.960Z,1026.28
2018-12-26T04:01:47.694Z,1026.27
2018-12-26T04:02:28.425Z,1026.29
2018-12-26T04:03:09.191Z,1026.29
2018-12-26T04:03:49.987Z,1026.29
2018-12-26T04:04:30.800Z,1026.3
2018-12-26T04:05:11.514Z,1026.3
2018-12-26T04:05:52.291Z,1026.29
2018-12-26T04:06:33.046Z,1026.3
2018-12-26T04:07:13.817Z,1026.33
2018-12-26T04:07:54.554Z,1026.33
2018-12-26T04:08:35.266Z,1026.35
2018-12-26T04:09:16.050Z,1026.35
2018-12-26T04:09:56.865Z,1026.32
2018-12-26T04:10:37.637Z,1026.31
2018-12-26T04:11:18.419Z,1026.3
2018-12-26T04:11:59.148Z,1026.24
2018-12-26T04:12:39.864Z,1026.29
2018-12-26T04:13:20.624Z,1026.28
2018-12-26T04:14:01.442Z,1026.25
2018-12-26T04:14:42.216Z,1026.32
2018-12-26T04:15:22.904Z,1026.29
2018-12-26T04:16:03.724Z,1026.3
2018-12-26T04:16:44.591Z,1026.31
2018-12-26T04:17:25.412Z,1026.29
2018-12-26T04:18:06.111Z,1026.28
2018-12-26T04:18:46.819Z,1026.29
2018-12-26T04:19:27.561Z,1026.27
2018-12-26T04:20:08.305Z,1026.35
2018-12-26T04:20:49.121Z,1026.28
2018-12-26T04:21:29.865Z,1026.26
2018-12-26T04:22:10.726Z,1026.33
2018-12-26T04:22:51.395Z,1026.31
2018-12-26T04:23:32.204Z,1026.31
2018-12-26T04:24:13.035Z,1026.29
2018-12-26T04:24:53.733Z,1026.32
2018-12-26T04:25:34.507Z,1026.32
2018-12-26T04:26:15.198Z,1026.34
2018-12-26T04:26:56.150Z,1026.33
2018-12-26T04:27:36.928Z,1026.32
2018-12-26T04:28:17.737Z,1026.34
2018-12-26T04:28:58.450Z,1026.35
2018-12-26T04:29:39.175Z,1026.34
2018-12-26T04:30:19.885Z,1026.34
2018-12-26T04:31:00.682Z,1026.32
2018-12-26T04:31:41.554Z,1026.36
2018-12-26T04:32:22.254Z,1026.35
2018-12-26T04:33:03.016Z,1026.37
2018-12-26T04:33:43.858Z,1026.34
2018-12-26T04:34:24.616Z,1026.39
2018-12-26T04:35:05.451Z,1026.34
2018-12-26T04:35:46.180Z,1026.34
2018-12-26T04:36:26.914Z,1026.31
2018-12-26T04:37:07.741Z,1026.35
2018-12-26T04:37:48.474Z,1026.35
2018-12-26T04:38:29.235Z,1026.35
2018-12-26T04:39:10.023Z,1026.35
2018-12-26T04:39:50.826Z,1026.36
2018-12-26T04:40:31.598Z,1026.38
2018-12-26T04:41:12.354Z,1026.37
2018-12-26T04:41:53.116Z,1026.35
2018-12-26T04:42:33.973Z,1026.39
2018-12-26T04:43:15.722Z,1026.38
2018-12-26T04:43:56.526Z,1026.35
2018-12-26T04:44:37.832Z,1026.37
2018-12-26T04:45:18.550Z,1026.36
2018-12-26T04:45:59.322Z,1026.39
2018-12-26T04:46:40.111Z,1026.37
2018-12-26T04:47:20.946Z,1026.41
2018-12-26T04:48:01.752Z,1026.4
2018-12-26T04:48:42.476Z,1026.38
2018-12-26T04:49:23.891Z,1026.39
2018-12-26T04:50:04.065Z,1026.39
2018-12-26T04:50:44.802Z,1026.41
2018-12-26T04:51:25.518Z,1026.41
2018-12-26T04:52:06.239Z,1026.46
2018-12-26T04:52:47.196Z,1026.45
2018-12-26T04:53:28.031Z,1026.43
2018-12-26T04:54:08.699Z,1026.42
2018-12-26T04:54:49.487Z,1026.38
2018-12-26T04:55:31.274Z,1026.43
2018-12-26T04:56:11.591Z,1026.44
2018-12-26T04:56:52.375Z,1026.4
2018-12-26T04:57:33.361Z,1026.38
2018-12-26T04:58:14.087Z,1026.38
2018-12-26T04:58:54.790Z,1026.38
2018-12-26T04:59:35.562Z,1026.4
2018-12-26T05:00:16.357Z,1026.39
2018-12-26T05:00:57.172Z,1026.42
2018-12-26T05:01:37.963Z,1026.42
2018-12-26T05:02:19.045Z,1026.45
2018-12-26T05:02:59.488Z,1026.45
2018-12-26T05:03:40.258Z,1026.48
2018-12-26T05:04:21.102Z,1026.5
2018-12-26T05:05:02.749Z,1026.45
2018-12-26T05:05:43.523Z,1026.48
2018-12-26T05:06:24.242Z,1026.48
2018-12-26T05:07:05.000Z,1026.46
2018-12-26T05:07:45.915Z,1026.48
2018-12-26T05:08:27.178Z,1026.47
2018-12-26T05:09:07.915Z,1026.47
2018-12-26T05:09:48.637Z,1026.49
2018-12-26T05:10:29.544Z,1026.47
2018-12-26T05:11:10.611Z,1026.48
2018-12-26T05:11:51.307Z,1026.49
2018-12-26T05:12:32.040Z,1026.47
2018-12-26T05:13:13.908Z,1026.45
2018-12-26T05:13:55.160Z,1026.48
2018-12-26T05:14:35.937Z,1026.47
2018-12-26T05:15:16.679Z,1026.45
2018-12-26T05:15:57.455Z,1026.48
2018-12-26T05:16:38.242Z,1026.46
2018-12-26T05:17:19.015Z,1026.47
2018-12-26T05:17:59.750Z,1026.46
2018-12-26T05:18:40.527Z,1026.48
2018-12-26T05:19:21.316Z,1026.49
2018-12-26T05:20:02.185Z,1026.52
2018-12-26T05:20:43.020Z,1026.5
2018-12-26T05:21:23.752Z,1026.55
2018-12-26T05:22:04.463Z,1026.5
2018-12-26T05:22:45.192Z,1026.52
2018-12-26T05:23:25.996Z,1026.53
2018-12-26T05:24:06.760Z,1026.49
2018-12-26T05:24:47.481Z,1026.47
2018-12-26T05:25:28.270Z,1026.51
2018-12-26T05:26:09.133Z,1026.54
2018-12-26T05:26:49.901Z,1026.52
2018-12-26T05:27:34.232Z,1026.55
2018-12-26T05:28:11.493Z,1026.55
2018-12-26T05:28:52.305Z,1026.53
2018-12-26T05:29:33.123Z,1026.54
2018-12-26T05:30:13.843Z,1026.56
2018-12-26T05:30:54.574Z,1026.52
2018-12-26T05:31:35.273Z,1026.58
2018-12-26T05:32:16.067Z,1026.57
2018-12-26T05:32:56.883Z,1026.56
2018-12-26T05:33:37.558Z,1026.57
2018-12-26T05:34:18.351Z,1026.56
2018-12-26T05:34:59.182Z,1026.55
2018-12-26T05:35:40.041Z,1026.58
2018-12-26T05:36:20.790Z,1026.6
2018-12-26T05:37:01.590Z,1026.62
2018-12-26T05:37:42.324Z,1026.63
2018-12-26T05:38:23.136Z,1026.59
2018-12-26T05:39:03.965Z,1026.62
2018-12-26T05:39:44.779Z,1026.63
2018-12-26T05:40:25.601Z,1026.63
2018-12-26T05:41:06.360Z,1026.63
2018-12-26T05:41:47.195Z,1026.62
2018-12-26T05:42:28.040Z,1026.67
2018-12-26T05:43:08.810Z,1026.64
2018-12-26T05:43:49.534Z,1026.64
2018-12-26T05:44:30.300Z,1026.65
2018-12-26T05:45:11.075Z,1026.63
2018-12-26T05:45:51.856Z,1026.62
2018-12-26T05:46:32.561Z,1026.65
2018-12-26T05:47:13.342Z,1026.66
2018-12-26T05:47:54.152Z,1026.65
2018-12-26T05:48:34.952Z,1026.7
2018-12-26T05:49:15.727Z,1026.66
2018-12-26T05:49:56.443Z,1026.68
2018-12-26T05:50:37.246Z,1026.68
2018-12-26T05:51:18.041Z,1026.72
2018-12-26T05:51:58.801Z,1026.72
2018-12-26T05:52:39.540Z,1026.75
2018-12-26T05:53:20.285Z,1026.71
2018-12-26T05:54:01.093Z,1026.73
2018-12-26T05:54:41.899Z,1026.7
2018-12-26T05:55:22.762Z,1026.71
2018-12-26T05:56:03.513Z,1026.74
2018-12-26T05:56:44.263Z,1026.74
2018-12-26T05:57:25.007Z,1026.69
2018-12-26T05:58:05.753Z,1026.71
2018-12-26T05:58:46.610Z,1026.74
2018-12-26T05:59:27.390Z,1026.74
2018-12-26T06:00:08.170Z,1026.74
2018-12-26T06:00:48.988Z,1026.72
2018-12-26T06:01:29.788Z,1026.72
2018-12-26T06:02:10.547Z,1026.76
2018-12-26T06:02:51.307Z,1026.73
2018-12-26T06:03:32.033Z,1026.73
2018-12-26T06:04:12.780Z,1026.72
2018-12-26T06:04:53.600Z,1026.7
2018-12-26T06:05:34.531Z,1026.71
2018-12-26T06:06:15.319Z,1026.73
2018-12-26T06:06:56.083Z,1026.71
2018-12-26T06:07:36.810Z,1026.72
2018-12-26T06:08:17.635Z,1026.72
2018-12-26T06:08:58.370Z,1026.71
2018-12-26T06:09:39.072Z,1026.68
2018-12-26T06:10:19.774Z,1026.71
2018-12-26T06:11:00.509Z,1026.76
2018-12-26T06:11:41.352Z,1026.74
2018-12-26T06:12:22.153Z,1026.78
2018-12-26T06:13:02.964Z,1026.74
2018-12-26T06:13:43.669Z,1026.81
2018-12-26T06:14:24.393Z,1026.84
2018-12-26T06:15:05.120Z,1026.8
2018-12-26T06:15:45.930Z,1026.88
2018-12-26T06:16:26.665Z,1026.83
2018-12-26T06:17:07.377Z,1026.82
2018-12-26T06:17:48.177Z,1026.82
2018-12-26T06:18:28.960Z,1026.81
2018-12-26T06:19:09.753Z,1026.8
2018-12-26T06:19:50.459Z,1026.82
2018-12-26T06:20:31.160Z,1026.83
2018-12-26T06:21:11.954Z,1026.83
2018-12-26T06:21:52.717Z,1026.89
2018-12-26T06:22:33.399Z,1026.86
2018-12-26T06:23:14.139Z,1026.87
2018-12-26T06:23:54.970Z,1026.86
2018-12-26T06:24:35.849Z,1026.91
2018-12-26T06:25:16.623Z,1026.89
2018-12-26T06:25:57.320Z,1026.94
2018-12-26T06:26:38.139Z,1026.93
2018-12-26T06:27:18.913Z,1026.92
2018-12-26T06:27:59.711Z,1026.93
2018-12-26T06:28:40.444Z,1026.93
2018-12-26T06:29:21.143Z,1026.94
2018-12-26T06:30:01.989Z,1026.95
2018-12-26T06:30:42.668Z,1026.92
2018-12-26T06:31:23.512Z,1026.92
2018-12-26T06:32:04.317Z,1026.91
2018-12-26T06:32:45.083Z,1026.93
2018-12-26T06:33:25.811Z,1026.92
2018-12-26T06:34:06.592Z,1026.96
2018-12-26T06:34:47.376Z,1026.91
2018-12-26T06:35:28.082Z,1026.95
2018-12-26T06:36:08.783Z,1026.94
2018-12-26T06:36:49.506Z,1026.98
2018-12-26T06:37:30.291Z,1026.99
2018-12-26T06:38:11.148Z,1027
2018-12-26T06:38:52.012Z,1027.02
2018-12-26T06:39:32.633Z,1026.99
2018-12-26T06:40:13.359Z,1027.03
2018-12-26T06:40:54.094Z,1026.99
2018-12-26T06:41:34.966Z,1027.01
2018-12-26T06:42:15.780Z,1027.02
2018-12-26T06:42:56.502Z,1027
2018-12-26T06:43:37.278Z,1026.99
2018-12-26T06:44:18.031Z,1027.04
2018-12-26T06:44:58.837Z,1027.02
2018-12-26T06:45:39.603Z,1027.06
2018-12-26T06:46:20.303Z,1027.05
2018-12-26T06:47:01.035Z,1027.04
2018-12-26T06:47:41.772Z,1027.04
2018-12-26T06:48:22.625Z,1027.03
2018-12-26T06:49:03.483Z,1027.04
2018-12-26T06:49:45.327Z,1027.05
2018-12-26T06:50:24.962Z,1027.07
2018-12-26T06:51:05.709Z,1027.05
2018-12-26T06:51:46.514Z,1027.07
2018-12-26T06:52:27.253Z,1027.07
2018-12-26T06:53:07.977Z,1027.09
2018-12-26T06:53:48.726Z,1027.09
2018-12-26T06:54:29.489Z,1027.12
2018-12-26T06:55:10.286Z,1027.08
2018-12-26T06:55:51.016Z,1027.09
2018-12-26T06:56:31.790Z,1027.08
2018-12-26T06:57:12.568Z,1027.09
2018-12-26T06:57:59.978Z,1027.07
2018-12-26T06:58:34.194Z,1027.08
2018-12-26T06:59:14.932Z,1027.05
2018-12-26T06:59:55.723Z,1027.04
2018-12-26T07:00:36.496Z,1027.07
2018-12-26T07:01:17.224Z,1027.04
2018-12-26T07:01:57.962Z,1027.01
2018-12-26T07:02:38.705Z,1027.02
2018-12-26T07:03:19.513Z,1027.05
2018-12-26T07:04:00.293Z,1027.05
2018-12-26T07:04:41.116Z,1027.05
2018-12-26T07:05:21.860Z,1027.06
2018-12-26T07:06:02.588Z,1027.07
2018-12-26T07:06:43.342Z,1027.06
2018-12-26T07:07:24.133Z,1027.11
2018-12-26T07:08:04.889Z,1027.04
2018-12-26T07:08:45.605Z,1027.07
2018-12-26T07:09:26.335Z,1027.07
2018-12-26T07:10:07.161Z,1027.05
2018-12-26T07:10:47.988Z,1027.05
2018-12-26T07:11:28.762Z,1027.03
2018-12-26T07:12:09.505Z,1027.04
2018-12-26T07:12:50.210Z,1027.07
2018-12-26T07:13:30.951Z,1027.07
2018-12-26T07:14:11.738Z,1027.06
2018-12-26T07:14:52.698Z,1027.02
2018-12-26T07:15:33.509Z,1027.02
2018-12-26T07:16:14.470Z,1027.07
2018-12-26T07:16:54.947Z,1027.04
2018-12-26T07:17:35.755Z,1027.06
2018-12-26T07:18:16.508Z,1027.08
2018-12-26T07:18:57.249Z,1027.11
2018-12-26T07:19:37.975Z,1027.12
2018-12-26T07:20:18.694Z,1027.07
2018-12-26T07:20:59.492Z,1027.11
2018-12-26T07:21:40.303Z,1027.12
2018-12-26T07:22:21.127Z,1027.13
2018-12-26T07:23:01.845Z,1027.11
2018-12-26T07:23:42.574Z,1027.1
2018-12-26T07:24:23.269Z,1027.09
2018-12-26T07:25:04.159Z,1027.09
2018-12-26T07:25:44.916Z,1027.05
2018-12-26T07:26:25.673Z,1027.08
2018-12-26T07:27:06.494Z,1027.14
2018-12-26T07:27:47.295Z,1027.12
2018-12-26T07:28:28.095Z,1027.14
2018-12-26T07:29:08.848Z,1027.17
2018-12-26T07:29:49.550Z,1027.11
2018-12-26T07:30:30.355Z,1027.16
2018-12-26T07:31:11.116Z,1027.16
2018-12-26T07:31:51.859Z,1027.12
2018-12-26T07:32:32.597Z,1027.13
2018-12-26T07:33:13.341Z,1027.14
2018-12-26T07:33:54.146Z,1027.16
2018-12-26T07:34:42.097Z,1027.14
2018-12-26T07:35:15.740Z,1027.13
2018-12-26T07:35:56.651Z,1027.14
2018-12-26T07:36:37.422Z,1027.18
2018-12-26T07:37:18.244Z,1027.17
2018-12-26T07:37:59.046Z,1027.18
2018-12-26T07:38:39.800Z,1027.2
2018-12-26T07:39:20.543Z,1027.21
2018-12-26T07:40:01.304Z,1027.24
2018-12-26T07:40:42.189Z,1027.23
2018-12-26T07:41:23.000Z,1027.27
2018-12-26T07:42:03.818Z,1027.26
2018-12-26T07:42:44.554Z,1027.31
2018-12-26T07:43:25.385Z,1027.29
2018-12-26T07:44:06.157Z,1027.31
2018-12-26T07:44:46.875Z,1027.27
2018-12-26T07:45:27.609Z,1027.26
2018-12-26T07:46:08.313Z,1027.23
2018-12-26T07:46:49.136Z,1027.26
2018-12-26T07:47:29.928Z,1027.24
2018-12-26T07:48:10.652Z,1027.25
2018-12-26T07:48:51.420Z,1027.26
2018-12-26T07:49:32.208Z,1027.27
2018-12-26T07:50:13.054Z,1027.3
2018-12-26T07:50:53.954Z,1027.31
2018-12-26T07:51:34.622Z,1027.31
2018-12-26T07:52:15.434Z,1027.35
2018-12-26T07:52:56.192Z,1027.31
2018-12-26T07:53:36.947Z,1027.33
2018-12-26T07:54:17.673Z,1027.35
2018-12-26T07:54:58.413Z,1027.38
2018-12-26T07:55:39.227Z,1027.36
2018-12-26T07:56:19.984Z,1027.34
2018-12-26T07:57:00.793Z,1027.35
2018-12-26T07:57:41.569Z,1027.32
2018-12-26T07:58:22.300Z,1027.31
2018-12-26T07:59:03.033Z,1027.33
2018-12-26T07:59:43.754Z,1027.35
2018-12-26T08:00:24.587Z,1027.35
2018-12-26T08:01:05.376Z,1027.36
2018-12-26T08:01:46.104Z,1027.33
2018-12-26T08:02:26.981Z,1027.36
2018-12-26T08:03:07.801Z,1027.37
2018-12-26T08:03:48.675Z,1027.38
2018-12-26T08:04:29.462Z,1027.37
2018-12-26T08:05:10.201Z,1027.41
2018-12-26T08:05:51.053Z,1027.44
2018-12-26T08:06:31.779Z,1027.41
2018-12-26T08:07:12.538Z,1027.42
2018-12-26T08:07:53.246Z,1027.4
2018-12-26T08:08:34.030Z,1027.43
2018-12-26T08:09:14.787Z,1027.43
2018-12-26T08:09:55.528Z,1027.42
2018-12-26T08:10:36.276Z,1027.41
2018-12-26T08:11:17.146Z,1027.41
2018-12-26T08:11:57.977Z,1027.4
2018-12-26T08:12:38.782Z,1027.41
2018-12-26T08:13:19.531Z,1027.45
2018-12-26T08:14:00.320Z,1027.43
2018-12-26T08:14:41.020Z,1027.44
2018-12-26T08:15:21.810Z,1027.46
2018-12-26T08:16:02.665Z,1027.5
2018-12-26T08:16:43.536Z,1027.47
2018-12-26T08:17:24.273Z,1027.5
2018-12-26T08:18:05.010Z,1027.52